Time;durP1;ratioP1;P1;durP2;ratioP2;P2;SDS_P1;SDS_P2;PMS_P1;PMS_P2;Temp;Humidity;BMP_temperature;BMP_pressure;BME280_temperature;BME280_humidity;BME280_pressure;Samples;Min_cycle;Max_cycle;Signal;HPM_P1;HPM_P2
2022/10/02 00:01:43;;;;;;;0.60;0.50;;;17.10;66.70;;;;;;5110609;28;20031;-76
2022/10/02 00:04:14;;;;;;;1.63;0.38;;;17.10;66.80;;;;;;5094831;28;20020;-76
2022/10/02 00:06:45;;;;;;;0.90;0.52;;;17.00;66.70;;;;;;5094773;28;20035;-76
2022/10/02 00:09:21;;;;;;;5.75;0.70;;;17.00;66.60;;;;;;5094768;28;20032;-77
2022/10/02 00:11:52;;;;;;;2.20;0.60;;;17.00;66.60;;;;;;5094608;28;20028;-77
2022/10/02 00:14:21;;;;;;;1.92;0.32;;;16.90;66.40;;;;;;5094446;28;20389;-76
2022/10/02 00:16:54;;;;;;;2.53;0.40;;;16.90;65.90;;;;;;5093227;28;20020;-76
2022/10/02 00:19:20;;;;;;;0.50;0.30;;;16.70;65.20;;;;;;5094626;28;20104;-76
2022/10/02 00:22:10;;;;;;;1.80;0.45;;;16.70;65.40;;;;;;5094414;28;20452;-76
2022/10/02 00:24:41;;;;;;;1.88;0.30;;;16.60;65.60;;;;;;5093223;28;20032;-77
2022/10/02 00:27:28;;;;;;;3.65;0.52;;;16.60;65.70;;;;;;5094436;28;20020;-76
2022/10/02 00:29:57;;;;;;;1.27;0.40;;;16.50;65.70;;;;;;5094351;28;20527;-76
2022/10/02 00:32:45;;;;;;;0.20;0.20;;;16.50;66.00;;;;;;5094214;28;20024;-77
2022/10/02 00:35:32;;;;;;;1.00;0.20;;;16.40;66.40;;;;;;5094039;28;20028;-75
2022/10/02 00:38:20;;;;;;;1.20;0.40;;;16.40;66.50;;;;;;5094247;28;20387;-77
2022/10/02 00:41:13;;;;;;;1.33;0.52;;;16.40;66.80;;;;;;5094070;28;20470;-76
2022/10/02 00:44:11;;;;;;;0.63;0.30;;;16.40;66.80;;;;;;5093960;28;20028;-76
2022/10/02 00:46:59;;;;;;;0.75;0.50;;;16.40;66.80;;;;;;5091926;28;20547;-76
2022/10/02 00:49:49;;;;;;;0.30;0.30;;;16.40;67.10;;;;;;5094057;28;20454;-76
2022/10/02 00:52:53;;;;;;;0.93;0.40;;;16.40;67.10;;;;;;5092573;28;20024;-76
2022/10/02 00:55:35;;;;;;;0.43;0.35;;;16.40;67.30;;;;;;5092626;28;20073;-75
2022/10/02 00:58:22;;;;;;;2.95;0.40;;;16.40;67.40;;;;;;5093872;28;20466;-75
2022/10/02 01:01:14;;;;;;;1.42;0.22;;;16.40;67.40;;;;;;5092470;28;20435;-76
2022/10/02 01:03:43;;;;;;;0.65;0.38;;;16.40;67.30;;;;;;5092980;28;20040;-75
2022/10/02 01:06:10;;;;;;;0.85;0.30;;;16.40;67.30;;;;;;5093606;28;20020;-75
2022/10/02 01:08:36;;;;;;;3.17;0.47;;;16.40;67.30;;;;;;5093478;28;20025;-75
2022/10/02 01:11:04;;;;;;;0.93;0.50;;;16.30;67.30;;;;;;5093432;28;20035;-76
2022/10/02 01:13:30;;;;;;;0.82;0.30;;;16.30;67.30;;;;;;5093409;28;20020;-75
2022/10/02 01:16:00;;;;;;;0.77;0.40;;;16.30;67.30;;;;;;5093400;28;20034;-76
2022/10/02 01:18:28;;;;;;;0.80;0.40;;;16.30;67.40;;;;;;5093659;28;20027;-76
2022/10/02 01:21:02;;;;;;;1.00;0.50;;;16.30;67.40;;;;;;5093308;28;20027;-75
2022/10/02 01:23:46;;;;;;;;;;;16.30;67.10;;;;;;5093738;28;20366;-76
2022/10/02 01:26:12;;;;;;;0.95;0.52;;;16.30;66.70;;;;;;5093336;28;19958;-75
2022/10/02 01:28:39;;;;;;;2.78;0.68;;;16.30;66.80;;;;;;5091921;28;20461;-76
2022/10/02 01:31:11;;;;;;;1.20;0.50;;;16.30;66.90;;;;;;5093135;28;20034;-75
2022/10/02 01:33:40;;;;;;;2.28;0.52;;;16.20;66.70;;;;;;5092874;28;20079;-75
2022/10/02 01:36:06;;;;;;;2.65;0.60;;;16.10;66.50;;;;;;5108880;28;20032;-76
2022/10/02 01:38:33;;;;;;;1.17;0.30;;;16.00;66.40;;;;;;5093195;28;20016;-76
2022/10/02 01:40:59;;;;;;;5.00;0.38;;;16.00;66.40;;;;;;5093008;28;20023;-76
2022/10/02 01:43:30;;;;;;;0.68;0.30;;;15.90;66.60;;;;;;5093104;28;20028;-75
2022/10/02 01:46:39;;;;;;;0.55;0.45;;;15.80;66.70;;;;;;5092949;28;20119;-76
2022/10/02 01:49:38;;;;;;;1.13;0.60;;;15.70;66.70;;;;;;5093103;28;20074;-76
2022/10/02 01:52:16;;;;;;;0.95;0.45;;;15.70;66.80;;;;;;5092965;28;20052;-76
2022/10/02 01:54:53;;;;;;;0.77;0.30;;;15.60;66.60;;;;;;5092983;28;20118;-77
2022/10/02 01:57:25;;;;;;;0.55;0.30;;;15.50;66.80;;;;;;5091700;28;20056;-75
2022/10/02 02:00:12;;;;;;;0.70;0.30;;;15.40;66.90;;;;;;5096784;28;20451;-76
2022/10/02 02:02:49;;;;;;;2.78;0.35;;;15.30;66.90;;;;;;5097027;28;20056;-76
2022/10/02 02:05:46;;;;;;;2.83;0.50;;;15.20;66.90;;;;;;5096631;28;20032;-75
2022/10/02 02:08:29;;;;;;;0.38;0.20;;;15.20;67.10;;;;;;5097000;28;20023;-75
2022/10/02 02:11:10;;;;;;;0.32;0.32;;;15.10;67.20;;;;;;5112539;28;20032;-75
2022/10/02 02:14:13;;;;;;;0.95;0.30;;;15.00;67.30;;;;;;5096955;28;20110;-76
2022/10/02 02:16:54;;;;;;;2.08;0.50;;;15.00;67.40;;;;;;5090357;28;20371;-75
2022/10/02 02:19:38;;;;;;;0.70;0.30;;;14.90;67.60;;;;;;5096823;28;20024;-76
2022/10/02 02:22:07;;;;;;;0.70;0.20;;;14.80;67.60;;;;;;5096535;28;20039;-74
2022/10/02 02:24:36;;;;;;;0.30;0.20;;;14.80;67.80;;;;;;5096452;28;20028;-75
2022/10/02 02:27:04;;;;;;;0.65;0.32;;;14.80;68.00;;;;;;5096334;28;20497;-75
2022/10/02 02:29:33;;;;;;;3.90;0.40;;;14.70;68.20;;;;;;5095904;28;20024;-76
2022/10/02 02:32:01;;;;;;;0.45;0.28;;;14.70;68.40;;;;;;5076383;28;20025;-76
2022/10/02 02:34:43;;;;;;;1.13;0.40;;;14.70;68.40;;;;;;5088621;28;20477;-76
2022/10/02 02:37:15;;;;;;;0.63;0.30;;;14.70;68.60;;;;;;5096432;28;20046;-76
2022/10/02 02:40:13;;;;;;;0.60;0.52;;;14.70;68.50;;;;;;5094317;28;20035;-75
2022/10/02 02:42:50;;;;;;;0.47;0.40;;;14.70;68.60;;;;;;5081710;28;20040;-76
2022/10/02 02:45:24;;;;;;;1.85;0.32;;;14.70;68.70;;;;;;5088712;28;20066;-76
2022/10/02 02:47:49;;;;;;;1.30;0.38;;;14.70;68.80;;;;;;5096213;28;20579;-75
2022/10/02 02:50:32;;;;;;;0.22;0.22;;;14.70;68.90;;;;;;5095886;28;20034;-75
2022/10/02 02:52:59;;;;;;;0.52;0.30;;;14.70;69.20;;;;;;5107414;28;20023;-75
2022/10/02 02:55:43;;;;;;;0.30;0.30;;;14.70;69.10;;;;;;5093894;28;20491;-75
2022/10/02 02:58:38;;;;;;;0.85;0.40;;;14.70;69.00;;;;;;5095978;28;20024;-76
2022/10/02 03:01:04;;;;;;;1.00;0.30;;;14.70;68.80;;;;;;5093006;28;20042;-76
2022/10/02 03:03:31;;;;;;;6.90;0.50;;;14.80;68.90;;;;;;5087219;28;20024;-76
2022/10/02 03:06:17;;;;;;;0.70;0.30;;;14.70;69.00;;;;;;5095905;28;20028;-76
2022/10/02 03:08:45;;;;;;;3.80;0.60;;;14.70;69.20;;;;;;5110902;28;20500;-77
2022/10/02 03:11:45;;;;;;;0.60;0.38;;;14.70;69.30;;;;;;5111071;28;20028;-76
2022/10/02 03:14:34;;;;;;;0.75;0.40;;;14.70;69.50;;;;;;5095701;28;20042;-77
2022/10/02 03:17:21;;;;;;;1.08;0.50;;;14.80;69.60;;;;;;5095686;28;20074;-76
2022/10/02 03:20:20;;;;;;;2.50;0.70;;;14.80;69.60;;;;;;5095663;28;20099;-76
2022/10/02 03:22:59;;;;;;;0.45;0.40;;;14.80;69.60;;;;;;5095539;28;20020;-77
2022/10/02 03:25:38;;;;;;;0.68;0.47;;;14.90;69.60;;;;;;5095502;28;20023;-76
2022/10/02 03:28:14;;;;;;;0.57;0.50;;;14.90;69.60;;;;;;5095536;28;20468;-76
2022/10/02 03:30:41;;;;;;;1.15;0.60;;;15.00;69.60;;;;;;5094086;28;20173;-75
2022/10/02 03:33:11;;;;;;;0.70;0.57;;;15.00;69.50;;;;;;5095116;28;20027;-77
2022/10/02 03:35:37;;;;;;;0.65;0.65;;;15.10;69.50;;;;;;5093818;28;20024;-77
2022/10/02 03:38:06;;;;;;;2.20;0.68;;;15.10;69.40;;;;;;5094282;28;20020;-76
2022/10/02 03:40:33;;;;;;;0.68;0.50;;;15.10;69.40;;;;;;5095243;28;20046;-76
2022/10/02 03:43:00;;;;;;;2.78;0.95;;;15.10;69.40;;;;;;5095205;28;20031;-75
2022/10/02 03:45:27;;;;;;;3.47;0.65;;;15.20;69.30;;;;;;5094943;28;20051;-76
2022/10/02 03:47:53;;;;;;;1.58;0.50;;;15.30;69.30;;;;;;5095086;28;20024;-76
2022/10/02 03:50:20;;;;;;;7.22;0.70;;;15.30;69.10;;;;;;5094988;28;20077;-75
2022/10/02 03:52:49;;;;;;;2.83;0.60;;;15.30;68.90;;;;;;5094988;28;20032;-77
2022/10/02 03:55:38;;;;;;;1.08;0.63;;;15.30;68.60;;;;;;5095057;28;20016;-76
2022/10/02 03:58:15;;;;;;;7.60;0.35;;;15.40;68.60;;;;;;5095147;28;20424;-76
2022/10/02 04:01:11;;;;;;;0.38;0.38;;;15.40;68.50;;;;;;5094784;28;20027;-78
2022/10/02 04:03:44;;;;;;;2.35;0.82;;;15.50;68.50;;;;;;5094566;28;20020;-76
2022/10/02 04:06:22;;;;;;;1.55;0.60;;;15.40;68.50;;;;;;5094868;28;20570;-76
2022/10/02 04:08:48;;;;;;;0.60;0.40;;;15.50;68.60;;;;;;5094819;28;20431;-78
2022/10/02 04:11:24;;;;;;;4.22;0.70;;;15.50;68.60;;;;;;5094632;28;20031;-77
2022/10/02 04:14:15;;;;;;;4.63;0.55;;;15.50;68.50;;;;;;5094760;28;20077;-77
2022/10/02 04:17:03;;;;;;;5.38;0.40;;;15.60;68.40;;;;;;5094624;28;20085;-75
2022/10/02 04:19:39;;;;;;;1.20;0.60;;;15.60;68.20;;;;;;5094604;28;20153;-77
2022/10/02 04:22:16;;;;;;;4.20;0.50;;;15.60;68.10;;;;;;5093530;28;20016;-76
2022/10/02 04:24:55;;;;;;;1.10;0.47;;;15.60;68.10;;;;;;5094444;28;20016;-76
2022/10/02 04:27:43;;;;;;;0.50;0.32;;;15.60;68.00;;;;;;5094430;28;20035;-76
2022/10/02 04:30:15;;;;;;;1.67;0.50;;;15.60;68.00;;;;;;5094341;28;20052;-76
2022/10/02 04:32:41;;;;;;;1.63;0.80;;;15.70;68.10;;;;;;5094326;28;20020;-77
2022/10/02 04:35:22;;;;;;;2.05;0.68;;;15.70;68.00;;;;;;5092461;28;20020;-77
2022/10/02 04:38:01;;;;;;;3.17;0.55;;;15.70;68.10;;;;;;5094125;28;20103;-76
2022/10/02 04:40:49;;;;;;;1.10;0.65;;;15.70;68.00;;;;;;5094191;28;20019;-75
2022/10/02 04:43:46;;;;;;;2.55;0.85;;;15.70;67.70;;;;;;5092888;28;20043;-77
2022/10/02 04:46:30;;;;;;;2.05;0.90;;;15.70;67.70;;;;;;5093872;28;20040;-76
2022/10/02 04:48:56;;;;;;;;;;;15.70;67.80;;;;;;5093149;28;20470;-75
2022/10/02 04:51:48;;;;;;;2.20;0.60;;;15.70;67.70;;;;;;5093945;28;19957;-75
2022/10/02 04:54:51;;;;;;;0.80;0.50;;;15.80;67.70;;;;;;5093966;28;20073;-74
2022/10/02 04:57:58;;;;;;;1.15;0.50;;;15.70;67.70;;;;;;5093915;28;20470;-75
2022/10/02 05:00:27;;;;;;;3.17;0.70;;;15.80;67.70;;;;;;5093899;28;20035;-77
2022/10/02 05:03:16;;;;;;;4.10;0.65;;;15.80;67.70;;;;;;5092119;28;20359;-77
2022/10/02 05:06:00;;;;;;;0.85;0.70;;;15.80;67.70;;;;;;5087948;28;20546;-76
2022/10/02 05:08:45;;;;;;;2.28;0.60;;;15.80;67.80;;;;;;5093954;28;20103;-76
2022/10/02 05:11:37;;;;;;;1.30;0.70;;;15.80;67.80;;;;;;5092158;28;20533;-77
2022/10/02 05:14:14;;;;;;;0.70;0.50;;;15.80;68.10;;;;;;5093549;28;20020;-75
2022/10/02 05:16:55;;;;;;;0.90;0.63;;;15.80;68.30;;;;;;5093515;28;20058;-76
2022/10/02 05:19:48;;;;;;;1.02;0.50;;;15.80;68.40;;;;;;5093434;28;20085;-77
2022/10/02 05:22:44;;;;;;;3.08;0.50;;;15.90;68.50;;;;;;5092076;28;20366;-76
2022/10/02 05:25:38;;;;;;;2.17;0.70;;;15.80;68.40;;;;;;5093450;28;20028;-78
2022/10/02 05:28:30;;;;;;;2.38;0.90;;;15.90;68.60;;;;;;5093373;28;20024;-76
2022/10/02 05:31:24;;;;;;;2.28;0.70;;;15.90;68.70;;;;;;5073689;28;20558;-75
2022/10/02 05:33:56;;;;;;;2.38;0.68;;;15.90;68.70;;;;;;5091509;28;20039;-76
2022/10/02 05:36:44;;;;;;;3.17;0.80;;;15.90;68.60;;;;;;5093125;28;20024;-75
2022/10/02 05:39:25;;;;;;;2.22;0.90;;;15.90;68.60;;;;;;5093318;28;20616;-76
2022/10/02 05:42:00;;;;;;;1.23;0.63;;;15.90;68.60;;;;;;5093235;28;20555;-75
2022/10/02 05:44:36;;;;;;;0.90;0.50;;;15.90;68.70;;;;;;5091915;28;20039;-75
2022/10/02 05:47:09;;;;;;;0.85;0.60;;;16.00;68.90;;;;;;5092914;28;20113;-76
2022/10/02 05:49:42;;;;;;;1.98;0.77;;;16.00;69.00;;;;;;5093143;28;20024;-76
2022/10/02 05:52:17;;;;;;;1.27;0.40;;;16.00;68.90;;;;;;5093159;28;20051;-76
2022/10/02 05:55:06;;;;;;;1.63;0.63;;;16.00;68.90;;;;;;5093181;28;20029;-75
2022/10/02 05:57:40;;;;;;;2.05;0.75;;;16.00;68.90;;;;;;5093043;28;20477;-77
2022/10/02 06:00:27;;;;;;;3.63;0.90;;;16.10;69.10;;;;;;5093155;28;20051;-75
2022/10/02 06:03:14;;;;;;;6.70;3.47;;;16.10;69.00;;;;;;5092812;28;20020;-77
2022/10/02 06:06:05;;;;;;;12.25;6.75;;;16.20;69.00;;;;;;5072698;28;20024;-75
2022/10/02 06:08:49;;;;;;;38.60;23.58;;;16.20;68.90;;;;;;5072724;28;20381;-75
2022/10/02 06:11:19;;;;;;;22.35;13.60;;;16.20;69.00;;;;;;5071509;28;20438;-77
2022/10/02 06:13:51;;;;;;;8.27;5.18;;;16.20;69.00;;;;;;5072682;28;20541;-77
2022/10/02 06:16:20;;;;;;;3.60;2.50;;;16.30;69.00;;;;;;5071450;28;20024;-77
2022/10/02 06:18:53;;;;;;;5.20;2.50;;;16.30;69.10;;;;;;5072676;28;20055;-75
2022/10/02 06:21:41;;;;;;;3.53;2.15;;;16.30;69.10;;;;;;5072673;28;20032;-77
2022/10/02 06:24:19;;;;;;;4.47;1.98;;;16.30;69.00;;;;;;5069413;28;20036;-75
2022/10/02 06:27:02;;;;;;;4.47;1.40;;;16.40;69.00;;;;;;5072581;28;20109;-76
2022/10/02 06:29:52;;;;;;;2.00;1.10;;;16.40;69.00;;;;;;5071232;28;20123;-77
2022/10/02 06:32:37;;;;;;;2.08;1.10;;;16.50;68.90;;;;;;5079365;28;20062;-77
2022/10/02 06:35:14;;;;;;;4.88;1.30;;;16.50;68.80;;;;;;5091309;28;20103;-76
2022/10/02 06:37:49;;;;;;;2.17;0.80;;;16.60;68.60;;;;;;5092736;28;20027;-75
2022/10/02 06:40:44;;;;;;;1.85;0.90;;;16.60;68.60;;;;;;5092760;28;20024;-76
2022/10/02 06:43:10;;;;;;;;;;;16.60;68.80;;;;;;5108413;28;20504;-76
2022/10/02 06:45:57;;;;;;;2.40;1.13;;;16.70;68.70;;;;;;5095259;28;19999;-75
2022/10/02 06:48:56;;;;;;;5.68;2.17;;;16.70;68.60;;;;;;5096407;28;20027;-75
2022/10/02 06:51:40;;;;;;;1.73;1.35;;;16.70;68.70;;;;;;5088134;28;20043;-76
2022/10/02 06:54:18;;;;;;;1.65;1.02;;;16.80;69.10;;;;;;5096221;28;20027;-76
2022/10/02 06:57:02;;;;;;;2.00;1.00;;;16.90;69.20;;;;;;5099385;28;20019;-76
2022/10/02 06:59:34;;;;;;;2.38;1.25;;;16.90;69.20;;;;;;5115238;28;20358;-77
2022/10/02 07:02:31;;;;;;;1.70;1.00;;;17.00;69.20;;;;;;5116456;28;20032;-75
2022/10/02 07:05:41;;;;;;;2.00;1.20;;;17.10;69.00;;;;;;5099278;28;20016;-77
2022/10/02 07:08:26;;;;;;;3.17;1.70;;;17.20;68.50;;;;;;5094678;28;20039;-76
2022/10/02 07:11:02;;;;;;;10.50;2.65;;;17.40;68.50;;;;;;5095989;28;20112;-77
2022/10/02 07:13:41;;;;;;;4.28;2.13;;;17.40;68.20;;;;;;5095851;28;20015;-75
2022/10/02 07:16:34;;;;;;;4.43;2.50;;;17.50;68.30;;;;;;5094778;28;20024;-75
2022/10/02 07:19:15;;;;;;;3.42;2.00;;;17.60;68.10;;;;;;5075555;28;20043;-76
2022/10/02 07:22:13;;;;;;;3.90;1.92;;;17.70;67.90;;;;;;5075461;28;20029;-77
2022/10/02 07:25:02;;;;;;;3.80;1.83;;;17.80;67.80;;;;;;5075506;28;20512;-78
2022/10/02 07:27:43;;;;;;;6.28;1.50;;;17.90;67.70;;;;;;5085455;28;20401;-74
2022/10/02 07:30:12;;;;;;;2.50;1.08;;;18.10;67.20;;;;;;5075402;28;20024;-77
2022/10/02 07:32:47;;;;;;;3.92;1.73;;;18.20;67.20;;;;;;5079579;28;20023;-78
2022/10/02 07:35:45;;;;;;;3.92;1.50;;;18.20;67.10;;;;;;5095215;28;20012;-77
2022/10/02 07:38:17;;;;;;;2.13;1.20;;;18.30;67.00;;;;;;5095902;28;20032;-77
2022/10/02 07:41:13;;;;;;;2.80;1.40;;;18.40;66.50;;;;;;5095369;28;20081;-76
2022/10/02 07:44:16;;;;;;;4.43;1.58;;;18.50;66.40;;;;;;5095350;28;20077;-77
2022/10/02 07:47:03;;;;;;;2.95;1.40;;;18.50;66.30;;;;;;5078622;28;20139;-79
2022/10/02 07:49:54;;;;;;;3.92;1.33;;;18.50;66.30;;;;;;5093902;28;20389;-76
2022/10/02 07:52:23;;;;;;;1.30;0.93;;;18.50;66.00;;;;;;5095055;28;20032;-78
2022/10/02 07:55:16;;;;;;;4.13;1.40;;;18.50;66.10;;;;;;5094994;28;20032;-76
2022/10/02 07:58:01;;;;;;;2.78;1.10;;;18.50;66.20;;;;;;5095069;28;20023;-76
2022/10/02 08:00:31;;;;;;;2.10;1.20;;;18.50;66.20;;;;;;5095007;28;20031;-76
2022/10/02 08:03:01;;;;;;;2.70;1.02;;;18.50;66.20;;;;;;5095774;28;20012;-80
2022/10/02 08:05:32;;;;;;;3.10;1.23;;;18.50;66.20;;;;;;5094549;28;20093;-76
2022/10/02 08:08:17;;;;;;;2.33;1.20;;;18.60;66.20;;;;;;5110550;28;20020;-75
2022/10/02 08:10:50;;;;;;;2.10;0.95;;;18.60;65.80;;;;;;5094671;28;20028;-77
2022/10/02 08:13:22;;;;;;;1.63;1.13;;;18.70;65.80;;;;;;5094808;28;20026;-76
2022/10/02 08:15:53;;;;;;;5.40;1.60;;;18.70;65.60;;;;;;5093294;28;20397;-77
2022/10/02 08:18:25;;;;;;;3.10;1.23;;;18.80;65.30;;;;;;5094044;28;20020;-75
2022/10/02 08:20:51;;;;;;;2.70;1.52;;;18.80;65.00;;;;;;5094423;28;20032;-75
2022/10/02 08:23:19;;;;;;;3.75;1.80;;;18.80;65.10;;;;;;5094430;28;20034;-74
2022/10/02 08:26:15;;;;;;;3.38;1.20;;;18.80;64.90;;;;;;5094336;28;20381;-75
2022/10/02 08:29:07;;;;;;;2.92;1.20;;;18.80;65.50;;;;;;5093437;28;20043;-77
2022/10/02 08:31:33;;;;;;;2.92;1.50;;;18.80;65.00;;;;;;5089151;28;20079;-77
2022/10/02 08:34:24;;;;;;;3.30;1.00;;;18.80;65.20;;;;;;5094311;28;20035;-75
2022/10/02 08:37:07;;;;;;;2.55;1.40;;;18.80;65.30;;;;;;5108414;28;20024;-75
2022/10/02 08:39:36;;;;;;;3.03;1.37;;;18.90;65.20;;;;;;5093025;28;20085;-75
2022/10/02 08:42:35;;;;;;;2.50;1.45;;;18.90;65.10;;;;;;5094135;28;20097;-75
2022/10/02 08:45:39;;;;;;;4.07;1.20;;;19.00;65.60;;;;;;5094099;28;20093;-75
2022/10/02 08:48:50;;;;;;;3.40;1.00;;;19.00;65.20;;;;;;5084618;28;20039;-75
2022/10/02 08:51:33;;;;;;;4.95;1.60;;;19.10;64.90;;;;;;5114246;28;20024;-75
2022/10/02 08:54:17;;;;;;;3.40;1.50;;;19.10;64.80;;;;;;5114317;28;20023;-75
2022/10/02 08:57:07;;;;;;;5.68;1.50;;;19.10;63.70;;;;;;5114109;28;20481;-75
2022/10/02 09:00:13;;;;;;;3.13;0.98;;;19.10;64.00;;;;;;5104635;28;20040;-76
2022/10/02 09:03:17;;;;;;;4.53;1.23;;;19.10;63.90;;;;;;5079045;28;20031;-77
2022/10/02 09:06:11;;;;;;;4.03;1.08;;;19.10;63.90;;;;;;5073579;28;20021;-77
2022/10/02 09:08:56;;;;;;;4.93;1.48;;;19.20;63.70;;;;;;5096194;28;20079;-75
2022/10/02 09:11:44;;;;;;;4.85;1.92;;;19.20;63.70;;;;;;5112771;28;20426;-77
2022/10/02 09:14:24;;;;;;;5.82;1.70;;;19.20;63.60;;;;;;5114008;28;20023;-75
2022/10/02 09:17:18;;;;;;;2.38;1.10;;;19.20;63.70;;;;;;5114008;28;20031;-76
2022/10/02 09:20:05;;;;;;;4.70;1.37;;;19.20;63.50;;;;;;5114109;28;20027;-78
2022/10/02 09:23:18;;;;;;;3.70;1.02;;;19.20;63.20;;;;;;5112464;28;20035;-76
2022/10/02 09:25:56;;;;;;;3.75;1.20;;;19.20;63.70;;;;;;5070464;28;20070;-75
2022/10/02 09:29:03;;;;;;;3.53;1.42;;;19.20;63.10;;;;;;5108368;28;20039;-76
2022/10/02 09:32:12;;;;;;;6.57;1.60;;;19.20;63.20;;;;;;5071666;28;20060;-78
2022/10/02 09:34:46;;;;;;;4.65;1.02;;;19.30;63.60;;;;;;5084996;28;20028;-78
2022/10/02 09:37:30;;;;;;;3.88;1.15;;;19.30;63.30;;;;;;5093285;28;20023;-76
2022/10/02 09:40:33;;;;;;;2.25;1.05;;;19.40;63.70;;;;;;5093185;28;20016;-78
2022/10/02 09:43:33;;;;;;;2.30;1.10;;;19.40;63.50;;;;;;5093256;28;20392;-78
2022/10/02 09:46:32;;;;;;;4.70;1.20;;;19.50;63.10;;;;;;5094043;28;20036;-76
2022/10/02 09:49:28;;;;;;;3.58;1.20;;;19.50;62.40;;;;;;5093126;28;20060;-77
2022/10/02 09:52:16;;;;;;;3.67;1.42;;;19.40;62.30;;;;;;5093061;28;20024;-78
2022/10/02 09:55:25;;;;;;;3.55;1.50;;;19.40;62.10;;;;;;5093068;28;20436;-77
2022/10/02 09:58:31;;;;;;;3.45;1.08;;;19.30;62.80;;;;;;5093183;28;20021;-78
2022/10/02 10:01:30;;;;;;;3.90;1.20;;;19.20;62.20;;;;;;5093088;28;20028;-78
2022/10/02 10:04:02;;;;;;;3.97;1.02;;;19.20;62.40;;;;;;5095748;28;20027;-78
2022/10/02 10:06:34;;;;;;;4.10;1.20;;;19.10;63.00;;;;;;5113555;28;20496;-75
2022/10/02 10:09:26;;;;;;;7.00;1.10;;;19.10;63.60;;;;;;5112227;28;20039;-78
2022/10/02 10:11:59;;;;;;;3.53;0.85;;;19.00;63.70;;;;;;5101145;28;20456;-79
2022/10/02 10:14:32;;;;;;;3.33;0.90;;;18.80;64.40;;;;;;5091762;28;20028;-76
2022/10/02 10:17:19;;;;;;;3.67;1.30;;;18.70;64.80;;;;;;5092948;28;20104;-76
2022/10/02 10:19:58;;;;;;;1.90;1.08;;;18.50;65.20;;;;;;5096217;28;20068;-76
2022/10/02 10:22:51;;;;;;;3.58;0.90;;;18.50;65.70;;;;;;5095899;28;20065;-76
2022/10/02 10:25:49;;;;;;;1.48;0.90;;;18.40;66.00;;;;;;5089516;28;20465;-77
2022/10/02 10:28:36;;;;;;;4.32;1.45;;;18.40;65.90;;;;;;5089254;28;20035;-77
2022/10/02 10:31:24;;;;;;;3.05;0.80;;;18.30;66.10;;;;;;5095091;28;20028;-77
2022/10/02 10:34:06;;;;;;;1.85;0.77;;;18.40;67.50;;;;;;5096201;28;20481;-77
2022/10/02 10:40:07;;;;;;;4.38;1.17;;;18.50;68.20;;;;;;5117019;28;20035;-77
2022/10/02 10:42:54;;;;;;;2.97;1.20;;;18.70;68.30;;;;;;5115603;28;20028;-77
2022/10/02 10:45:37;;;;;;;2.00;1.00;;;18.90;68.00;;;;;;5096138;28;20106;-78
2022/10/02 10:48:36;;;;;;;2.38;1.00;;;19.10;67.70;;;;;;5096282;27;20397;-76
2022/10/02 10:51:44;;;;;;;2.38;1.20;;;19.20;67.00;;;;;;5093106;28;20032;-76
2022/10/02 10:54:25;;;;;;;6.35;1.38;;;19.30;65.10;;;;;;5095814;28;20458;-77
2022/10/02 10:57:15;;;;;;;4.93;1.58;;;19.30;64.10;;;;;;5076207;28;20032;-77
2022/10/02 11:00:09;;;;;;;3.53;1.17;;;19.30;64.00;;;;;;5088227;28;20377;-78
2022/10/02 11:02:53;;;;;;;3.72;1.13;;;19.30;62.90;;;;;;5096529;28;20035;-78
2022/10/02 11:06:11;;;;;;;3.97;1.17;;;19.30;63.60;;;;;;5095736;28;20358;-77
2022/10/02 11:08:46;;;;;;;4.28;1.10;;;19.30;63.90;;;;;;5061171;28;20037;-76
2022/10/02 11:11:31;;;;;;;3.70;1.30;;;19.30;63.50;;;;;;5053329;28;20087;-77
2022/10/02 11:14:15;;;;;;;5.65;1.27;;;19.20;64.30;;;;;;5033473;28;20029;-78
2022/10/02 11:16:47;;;;;;;3.17;1.15;;;19.20;63.90;;;;;;5042758;28;20032;-77
2022/10/02 11:19:16;;;;;;;3.45;1.30;;;19.20;64.70;;;;;;5036483;28;20521;-77
2022/10/02 11:22:01;;;;;;;3.65;1.25;;;19.20;64.50;;;;;;5036361;28;20126;-77
2022/10/02 11:24:59;;;;;;;5.60;1.42;;;19.20;64.70;;;;;;5053080;28;20050;-76
2022/10/02 11:27:56;;;;;;;2.75;1.27;;;19.20;65.00;;;;;;5052658;28;20166;-77
2022/10/02 11:30:52;;;;;;;4.35;1.50;;;19.20;64.70;;;;;;5036884;28;20489;-76
2022/10/02 11:33:37;;;;;;;2.25;1.08;;;19.30;64.80;;;;;;5062314;28;20052;-76
2022/10/02 11:36:42;;;;;;;2.95;0.98;;;19.20;65.10;;;;;;5033052;28;20029;-76
2022/10/02 11:39:40;;;;;;;3.53;1.08;;;19.20;66.10;;;;;;5033036;28;20057;-76
2022/10/02 11:42:25;;;;;;;2.38;1.15;;;19.30;66.40;;;;;;5034000;28;20030;-75
2022/10/02 11:45:42;;;;;;;1.10;0.70;;;19.40;66.40;;;;;;5088357;28;20438;-75
2022/10/02 11:48:17;;;;;;;3.67;0.93;;;19.40;66.80;;;;;;5059423;28;20387;-76
2022/10/02 11:50:55;;;;;;;4.53;1.92;;;19.50;66.40;;;;;;5077725;28;20025;-76
2022/10/02 11:53:38;;;;;;;2.83;0.90;;;19.60;66.40;;;;;;5094788;28;20024;-76
2022/10/02 11:56:32;;;;;;;2.35;0.90;;;19.70;66.00;;;;;;5094655;28;20016;-77
2022/10/02 11:59:17;;;;;;;3.17;1.10;;;19.70;64.70;;;;;;5093035;28;20044;-77
2022/10/02 12:01:44;;;;;;;2.95;1.13;;;19.70;63.90;;;;;;5114308;28;20055;-76
2022/10/02 12:04:31;;;;;;;7.07;1.15;;;19.60;63.60;;;;;;5106367;28;20020;-76
2022/10/02 12:07:31;;;;;;;2.88;1.02;;;19.50;63.40;;;;;;5094556;28;20024;-76
2022/10/02 12:10:16;;;;;;;2.42;1.38;;;19.40;63.70;;;;;;5074332;28;20525;-76
2022/10/02 12:12:53;;;;;;;1.95;1.02;;;19.40;64.00;;;;;;5074365;28;20029;-77
2022/10/02 12:15:28;;;;;;;1.95;1.00;;;19.30;64.50;;;;;;5074304;28;20021;-77
2022/10/02 12:18:25;;;;;;;2.30;0.90;;;19.20;64.90;;;;;;5074123;28;20020;-77
2022/10/02 12:27:55;;;;;;;1.63;0.70;;;19.10;66.30;;;;;;5089123;28;20062;-76
2022/10/02 12:30:30;;;;;;;1.80;0.88;;;19.20;67.50;;;;;;5061018;28;20509;-76
2022/10/02 12:33:21;;;;;;;5.00;1.48;;;19.20;67.10;;;;;;5060915;28;20033;-75
2022/10/02 12:36:05;;;;;;;2.97;1.13;;;19.30;67.10;;;;;;5059900;28;20036;-76
2022/10/02 12:39:07;;;;;;;2.85;1.23;;;19.30;66.90;;;;;;5042277;28;20120;-76
2022/10/02 12:41:57;;;;;;;1.45;0.98;;;19.30;66.30;;;;;;5057728;28;20078;-76
2022/10/02 12:44:40;;;;;;;4.65;2.97;;;19.30;66.50;;;;;;5060698;28;20032;-74
2022/10/02 12:47:30;;;;;;;2.80;1.60;;;19.30;66.80;;;;;;5060957;28;20039;-76
2022/10/02 12:50:22;;;;;;;3.20;1.17;;;19.30;66.90;;;;;;5064490;28;20032;-77
2022/10/02 12:53:00;;;;;;;2.92;1.70;;;19.20;66.80;;;;;;5033264;28;20071;-75
2022/10/02 12:56:00;;;;;;;5.65;2.10;;;19.20;67.40;;;;;;5044341;28;20056;-75
2022/10/02 12:58:46;;;;;;;10.48;5.32;;;19.20;67.70;;;;;;5060582;28;20119;-75
2022/10/02 13:01:18;;;;;;;12.88;6.28;;;19.30;67.20;;;;;;5060790;28;20021;-75
2022/10/02 13:04:06;;;;;;;11.32;5.43;;;19.30;67.10;;;;;;5066373;28;20048;-75
2022/10/02 13:06:47;;;;;;;8.73;3.42;;;19.30;67.20;;;;;;5090175;28;20020;-75
2022/10/02 13:09:32;;;;;;;6.50;2.75;;;19.30;67.20;;;;;;5084955;28;20095;-76
2022/10/02 13:12:25;;;;;;;4.53;2.10;;;19.30;67.00;;;;;;5084112;28;20468;-75
2022/10/02 13:14:51;;;;;;;3.33;1.27;;;19.30;66.90;;;;;;5082923;28;20111;-75
2022/10/02 13:17:45;;;;;;;1.55;0.98;;;19.20;66.10;;;;;;5082590;28;20088;-75
2022/10/02 13:20:52;;;;;;;4.18;1.20;;;19.20;65.90;;;;;;5082921;28;20416;-76
2022/10/02 13:23:39;;;;;;;4.20;1.13;;;19.10;65.90;;;;;;5077450;28;20028;-75
2022/10/02 13:26:35;;;;;;;4.47;1.25;;;19.00;66.20;;;;;;5083981;28;20031;-75
2022/10/02 13:29:17;;;;;;;2.17;1.42;;;19.00;67.00;;;;;;5081030;28;20055;-75
2022/10/02 13:32:21;;;;;;;2.33;1.30;;;19.00;67.60;;;;;;5082594;28;20089;-75
2022/10/02 13:35:23;;;;;;;1.10;0.93;;;19.00;67.50;;;;;;5083481;28;20386;-77
2022/10/02 13:38:16;;;;;;;2.55;0.93;;;19.10;68.00;;;;;;5084941;28;20267;-76
2022/10/02 13:40:42;;;;;;;4.65;2.65;;;19.10;67.30;;;;;;5085256;28;20032;-76
2022/10/02 13:43:11;;;;;;;3.65;2.22;;;19.10;66.80;;;;;;5085906;28;20024;-76
2022/10/02 13:46:07;;;;;;;3.42;1.42;;;19.10;67.20;;;;;;5079233;28;20437;-76
2022/10/02 13:48:58;;;;;;;1.92;0.90;;;19.20;67.20;;;;;;5082394;28;20052;-77
2022/10/02 13:51:52;;;;;;;2.15;1.00;;;19.20;67.50;;;;;;5087510;28;20391;-75
2022/10/02 13:54:27;;;;;;;;;;;19.30;67.70;;;;;;5087993;28;20115;-77
2022/10/02 13:57:16;;;;;;;2.70;1.30;;;19.40;67.50;;;;;;5099318;28;19915;-76
2022/10/02 13:59:57;;;;;;;5.80;1.13;;;19.40;66.70;;;;;;5105221;28;20065;-76
2022/10/02 14:02:40;;;;;;;1.17;0.73;;;19.40;66.50;;;;;;5091542;28;20136;-76
2022/10/02 14:05:22;;;;;;;3.80;1.40;;;19.40;66.90;;;;;;5094466;28;20470;-76
2022/10/02 14:08:07;;;;;;;1.38;0.90;;;19.40;66.50;;;;;;5095048;28;20028;-76
2022/10/02 14:10:53;;;;;;;6.40;1.48;;;19.30;66.60;;;;;;5091282;28;20126;-76
2022/10/02 14:13:41;;;;;;;4.10;1.17;;;19.30;66.60;;;;;;5094203;28;20024;-75
2022/10/02 14:16:18;;;;;;;2.15;0.85;;;19.20;66.50;;;;;;5089750;28;20555;-78
2022/10/02 14:18:44;;;;;;;2.28;0.98;;;19.30;67.40;;;;;;5091854;28;20028;-77
2022/10/02 14:21:25;;;;;;;1.55;0.90;;;19.30;67.70;;;;;;5091472;28;20028;-76